createdAt,value
2018-08-13T00:01:38.393Z,43.47
2018-08-13T00:04:06.876Z,43.63
2018-08-13T00:06:35.684Z,42.56
2018-08-13T00:09:05.018Z,43.37
2018-08-13T00:11:33.708Z,43.54
2018-08-13T00:14:02.357Z,42.84
2018-08-13T00:16:31.003Z,42.90
2018-08-13T00:18:59.693Z,43.16
2018-08-13T00:21:28.882Z,43.83
2018-08-13T00:23:57.456Z,43.46
2018-08-13T00:26:25.966Z,43.17
2018-08-13T00:28:55.015Z,43.65
2018-08-13T00:31:23.707Z,44.07
2018-08-13T00:33:52.201Z,42.91
2018-08-13T00:36:20.967Z,43.10
2018-08-13T00:38:49.482Z,43.14
2018-08-13T00:41:18.022Z,43.41
2018-08-13T00:43:47.485Z,43.31
2018-08-13T00:46:15.981Z,43.69
2018-08-13T00:48:44.435Z,43.53
2018-08-13T00:51:13.229Z,43.61
2018-08-13T00:53:41.693Z,43.95
2018-08-13T00:56:10.232Z,43.86
2018-08-13T00:58:38.752Z,43.44
2018-08-13T01:01:07.300Z,43.63
2018-08-13T01:03:35.980Z,43.04
2018-08-13T01:06:04.849Z,43.78
2018-08-13T01:08:33.384Z,43.70
2018-08-13T01:11:01.921Z,44.30
2018-08-13T01:13:30.517Z,43.70
2018-08-13T01:15:59.650Z,44.28
2018-08-13T01:18:28.194Z,44.30
2018-08-13T01:20:56.686Z,44.35
2018-08-13T01:23:25.184Z,45.13
2018-08-13T01:25:55.034Z,44.02
2018-08-13T01:28:24.463Z,45.02
2018-08-13T01:30:53.025Z,44.42
2018-08-13T01:33:21.560Z,44.58
2018-08-13T01:35:50.068Z,44.98
2018-08-13T01:38:18.631Z,45.26
2018-08-13T01:40:47.112Z,45.11
2018-08-13T01:43:15.671Z,44.94
2018-08-13T01:45:44.300Z,45.68
2018-08-13T01:48:12.836Z,45.56
2018-08-13T01:50:41.352Z,45.95
2018-08-13T01:53:10.833Z,45.74
2018-08-13T01:55:39.588Z,45.23
2018-08-13T01:58:08.251Z,45.42
2018-08-13T02:00:36.789Z,45.88
2018-08-13T02:03:06.365Z,46.02
2018-08-13T02:05:34.869Z,45.53
2018-08-13T02:08:03.423Z,45.71
2018-08-13T02:10:32.097Z,46.34
2018-08-13T02:13:00.604Z,45.69
2018-08-13T02:15:29.332Z,46.20
2018-08-13T02:17:57.912Z,46.38
2018-08-13T02:20:26.384Z,46.37
2018-08-13T02:22:55.062Z,46.78
2018-08-13T02:25:23.538Z,46.66
2018-08-13T02:27:52.008Z,46.35
2018-08-13T02:30:20.663Z,46.31
2018-08-13T02:32:49.290Z,46.50
2018-08-13T02:35:18.810Z,47.53
2018-08-13T02:37:48.072Z,46.80
2018-08-13T02:40:16.878Z,47.00
2018-08-13T02:42:45.566Z,47.78
2018-08-13T02:45:14.282Z,47.99
2018-08-13T02:47:42.813Z,47.08
2018-08-13T02:50:12.922Z,48.07
2018-08-13T02:52:42.044Z,47.98
2018-08-13T02:55:11.647Z,48.49
2018-08-13T02:57:40.177Z,48.48
2018-08-13T03:00:10.504Z,48.32
2018-08-13T03:02:39.836Z,47.86
2018-08-13T03:05:11.051Z,48.54
2018-08-13T03:07:39.925Z,47.64
2018-08-13T03:10:11.436Z,48.43
2018-08-13T03:12:39.992Z,47.92
2018-08-13T03:15:11.181Z,48.15
2018-08-13T03:17:39.845Z,48.31
2018-08-13T03:20:09.014Z,48.26
2018-08-13T03:22:38.216Z,47.53
2018-08-13T03:25:08.877Z,48.59
2018-08-13T03:27:37.798Z,47.66
2018-08-13T03:30:09.935Z,47.76
2018-08-13T03:32:38.796Z,47.72
2018-08-13T03:35:07.772Z,48.28
2018-08-13T03:37:36.535Z,48.11
2018-08-13T03:40:07.791Z,48.86
2018-08-13T03:42:36.987Z,47.87
2018-08-13T03:45:07.297Z,48.03
2018-08-13T03:47:35.989Z,50.54
2018-08-13T03:50:05.651Z,51.84
2018-08-13T03:52:34.481Z,53.29
2018-08-13T03:55:03.012Z,52.79
2018-08-13T03:57:31.534Z,52.37
2018-08-13T04:00:00.127Z,55.08
2018-08-13T04:02:29.025Z,56.96
2018-08-13T04:04:57.721Z,58.83
2018-08-13T04:07:26.407Z,57.95
2018-08-13T04:09:55.061Z,60.20
2018-08-13T04:12:23.940Z,60.64
2018-08-13T04:14:52.502Z,61.03
2018-08-13T04:17:21.760Z,62.65
2018-08-13T04:19:51.122Z,63.86
2018-08-13T04:22:19.977Z,63.88
2018-08-13T04:24:49.261Z,63.59
2018-08-13T04:27:17.991Z,63.36
2018-08-13T04:29:46.839Z,64.33
2018-08-13T04:32:15.746Z,64.95
2018-08-13T04:34:44.739Z,65.53
2018-08-13T04:37:13.770Z,65.74
2018-08-13T04:39:42.804Z,65.76
2018-08-13T04:42:12.043Z,66.61
2018-08-13T04:44:41.438Z,66.83
2018-08-13T04:47:10.532Z,67.36
2018-08-13T04:49:39.379Z,67.83
2018-08-13T04:52:08.515Z,69.44
2018-08-13T04:54:38.081Z,69.08
2018-08-13T04:57:07.522Z,69.43
2018-08-13T04:59:36.636Z,69.87
2018-08-13T05:02:05.293Z,70.18
2018-08-13T05:04:34.345Z,70.90
2018-08-13T05:07:03.617Z,71.08
2018-08-13T05:09:32.415Z,71.75
2018-08-13T05:12:01.192Z,72.20
2018-08-13T05:14:29.822Z,73.01
2018-08-13T05:16:58.720Z,72.75
2018-08-13T05:19:33.189Z,73.80
2018-08-13T05:22:01.965Z,73.93
2018-08-13T05:24:30.548Z,74.06
2018-08-13T05:26:59.278Z,74.26
2018-08-13T05:29:27.977Z,74.30
2018-08-13T05:31:56.675Z,73.89
2018-08-13T05:34:25.821Z,74.66
2018-08-13T05:36:54.616Z,74.90
2018-08-13T05:39:23.853Z,75.68
2018-08-13T05:41:52.436Z,75.22
2018-08-13T05:44:21.201Z,75.51
2018-08-13T05:46:50.664Z,75.06
2018-08-13T05:49:19.472Z,75.84
2018-08-13T05:51:48.414Z,76.10
2018-08-13T05:54:17.482Z,75.95
2018-08-13T05:56:46.096Z,76.11
2018-08-13T05:59:14.854Z,76.60
2018-08-13T06:01:43.618Z,76.80
2018-08-13T06:04:12.346Z,75.58
2018-08-13T06:06:41.293Z,76.58
2018-08-13T06:09:12.906Z,76.34
2018-08-13T06:11:41.819Z,76.44
2018-08-13T06:14:10.753Z,77.38
2018-08-13T06:16:39.866Z,76.09
2018-08-13T06:19:08.687Z,76.87
2018-08-13T06:21:37.597Z,76.98
2018-08-13T06:24:06.376Z,77.42
2018-08-13T06:26:35.001Z,77.82
2018-08-13T06:29:04.202Z,76.91
2018-08-13T06:31:33.124Z,78.45
2018-08-13T06:34:02.257Z,76.76
2018-08-13T06:36:31.000Z,77.00
2018-08-13T06:38:59.666Z,76.65
2018-08-13T06:41:29.187Z,77.40
2018-08-13T06:43:58.567Z,76.73
2018-08-13T06:46:27.215Z,77.22
2018-08-13T06:48:55.893Z,77.08
2018-08-13T06:51:24.645Z,77.62
2018-08-13T06:53:53.477Z,77.85
2018-08-13T06:56:22.147Z,77.27
2018-08-13T06:58:50.944Z,78.00
2018-08-13T07:01:19.806Z,77.83
2018-08-13T07:03:48.631Z,77.35
2018-08-13T07:06:17.715Z,76.97
2018-08-13T07:08:46.313Z,77.05
2018-08-13T07:11:15.577Z,77.80
2018-08-13T07:13:44.331Z,78.01
2018-08-13T07:16:13.081Z,77.43
2018-08-13T07:18:41.752Z,77.34
2018-08-13T07:21:10.464Z,77.48
2018-08-13T07:23:39.154Z,78.36
2018-08-13T07:26:08.133Z,78.50
2018-08-13T07:28:37.295Z,77.69
2018-08-13T07:31:05.917Z,77.47
2018-08-13T07:33:34.717Z,78.31
2018-08-13T07:36:04.228Z,77.71
2018-08-13T07:38:33.024Z,78.32
2018-08-13T07:41:01.727Z,77.70
2018-08-13T07:43:30.337Z,77.13
2018-08-13T07:45:59.599Z,77.46
2018-08-13T07:48:28.631Z,76.90
2018-08-13T07:50:57.957Z,77.45
2018-08-13T07:53:26.582Z,76.41
2018-08-13T07:55:55.389Z,77.25
2018-08-13T07:58:24.114Z,76.76
2018-08-13T08:00:52.853Z,77.21
2018-08-13T08:03:21.717Z,76.73
2018-08-13T08:05:50.327Z,76.23
2018-08-13T08:08:19.484Z,76.38
2018-08-13T08:10:48.097Z,76.36
2018-08-13T08:13:17.055Z,76.52
2018-08-13T08:15:45.955Z,77.04
2018-08-13T08:18:14.600Z,77.31
2018-08-13T08:20:43.415Z,76.53
2018-08-13T08:23:12.136Z,77.20
2018-08-13T08:25:40.834Z,76.53
2018-08-13T08:28:09.912Z,76.30
2018-08-13T08:30:38.853Z,76.22
2018-08-13T08:33:07.680Z,76.04
2018-08-13T08:35:37.154Z,75.89
2018-08-13T08:38:06.490Z,76.19
2018-08-13T08:40:35.338Z,75.32
2018-08-13T08:43:04.586Z,75.67
2018-08-13T08:45:34.052Z,75.71
2018-08-13T08:48:02.791Z,75.36
2018-08-13T08:50:31.400Z,75.15
2018-08-13T08:53:00.345Z,75.36
2018-08-13T08:55:29.469Z,74.34
2018-08-13T08:57:58.141Z,73.70
2018-08-13T09:00:27.652Z,74.03
2018-08-13T09:02:56.488Z,73.33
2018-08-13T09:05:25.630Z,72.97
2018-08-13T09:07:54.514Z,72.97
2018-08-13T09:10:23.404Z,73.50
2018-08-13T09:12:52.453Z,73.66
2018-08-13T09:15:21.367Z,73.68
2018-08-13T09:18:01.221Z,73.11
2018-08-13T09:20:41.013Z,73.10
2018-08-13T09:23:20.827Z,72.11
2018-08-13T09:26:00.738Z,72.08
2018-08-13T09:28:40.538Z,71.63
2018-08-13T09:31:29.833Z,71.55
2018-08-13T09:34:14.725Z,71.50
2018-08-13T09:36:43.396Z,71.03
2018-08-13T09:39:12.075Z,70.85
2018-08-13T09:41:40.714Z,70.62
2018-08-13T09:44:10.075Z,70.83
2018-08-13T09:46:39.552Z,70.59
2018-08-13T09:49:09.301Z,69.57
2018-08-13T09:51:37.919Z,69.63
2018-08-13T09:54:06.619Z,69.63
2018-08-13T09:56:35.411Z,70.02
2018-08-13T09:59:04.239Z,69.44
2018-08-13T10:01:33.196Z,69.56
2018-08-13T10:04:01.716Z,69.76
2018-08-13T10:06:30.371Z,69.89
2018-08-13T10:09:05.593Z,70.53
2018-08-13T10:11:34.597Z,70.74
2018-08-13T10:14:03.977Z,70.92
2018-08-13T10:16:33.281Z,70.87
2018-08-13T10:19:02.123Z,71.30
2018-08-13T10:21:31.072Z,71.36
2018-08-13T10:23:59.714Z,71.42
2018-08-13T10:26:28.352Z,70.68
2018-08-13T10:28:57.346Z,70.54
2018-08-13T10:31:26.826Z,70.52
2018-08-13T10:33:55.789Z,70.09
2018-08-13T10:36:24.804Z,70.77
2018-08-13T10:38:53.438Z,70.61
2018-08-13T10:41:22.686Z,69.33
2018-08-13T10:43:51.385Z,69.40
2018-08-13T10:46:20.699Z,69.80
2018-08-13T10:48:49.651Z,69.30
2018-08-13T10:51:19.048Z,70.20
2018-08-13T10:53:47.988Z,70.11
2018-08-13T10:56:17.409Z,69.27
2018-08-13T10:58:46.109Z,69.33
2018-08-13T11:01:15.400Z,68.93
2018-08-13T11:03:44.384Z,67.77
2018-08-13T11:06:20.485Z,66.62
2018-08-13T11:08:49.346Z,66.26
2018-08-13T11:11:18.095Z,65.16
2018-08-13T11:13:46.964Z,64.06
2018-08-13T11:16:15.641Z,63.33
2018-08-13T11:18:44.682Z,63.78
2018-08-13T11:21:13.735Z,63.29
2018-08-13T11:23:43.077Z,64.26
2018-08-13T11:26:11.753Z,63.61
2018-08-13T11:28:40.415Z,62.32
2018-08-13T11:31:09.636Z,62.93
2018-08-13T11:33:38.443Z,62.35
2018-08-13T11:36:07.625Z,62.99
2018-08-13T11:38:36.481Z,61.91
2018-08-13T11:41:05.151Z,62.13
2018-08-13T11:43:34.687Z,62.45
2018-08-13T11:46:03.456Z,63.03
2018-08-13T11:48:33.015Z,62.48
2018-08-13T11:51:01.873Z,63.60
2018-08-13T11:53:30.900Z,65.15
2018-08-13T11:56:00.427Z,65.56
2018-08-13T11:58:29.253Z,67.97
2018-08-13T12:01:04.321Z,70.57
2018-08-13T12:03:32.991Z,71.43
2018-08-13T12:06:02.352Z,71.26
2018-08-13T12:08:31.371Z,71.19
2018-08-13T12:11:00.301Z,71.75
2018-08-13T12:13:29.353Z,71.79
2018-08-13T12:15:57.978Z,71.13
2018-08-13T12:18:27.945Z,69.77
2018-08-13T12:20:56.554Z,68.74
2018-08-13T12:23:25.434Z,68.40
2018-08-13T12:25:54.912Z,68.33
2018-08-13T12:28:23.864Z,66.97
2018-08-13T12:30:52.514Z,67.54
2018-08-13T12:33:28.097Z,68.52
2018-08-13T12:35:56.910Z,67.97
2018-08-13T12:38:29.805Z,67.57
2018-08-13T12:40:58.421Z,66.67
2018-08-13T12:43:27.221Z,66.36
2018-08-13T12:45:56.108Z,64.25
2018-08-13T12:48:24.928Z,62.04
2018-08-13T12:50:53.585Z,57.54
2018-08-13T12:53:22.675Z,55.65
2018-08-13T12:55:51.509Z,56.17
2018-08-13T12:58:20.084Z,57.87
2018-08-13T13:01:19.834Z,56.86
2018-08-13T13:03:55.253Z,55.22
2018-08-13T13:06:24.539Z,54.07
2018-08-13T13:08:53.361Z,54.19
2018-08-13T13:11:22.487Z,51.87
2018-08-13T13:13:51.451Z,53.30
2018-08-13T13:16:20.109Z,53.88
2018-08-13T13:18:48.789Z,55.87
2018-08-13T13:21:17.835Z,57.74
2018-08-13T13:23:46.591Z,59.67
2018-08-13T13:26:15.506Z,63.89
2018-08-13T13:28:44.801Z,64.88
2018-08-13T13:31:14.458Z,65.19
2018-08-13T13:33:43.404Z,66.97
2018-08-13T13:36:12.299Z,67.10
2018-08-13T13:38:41.396Z,67.72
2018-08-13T13:41:10.248Z,71.00
2018-08-13T13:43:38.911Z,76.00
2018-08-13T13:46:08.158Z,75.54
2018-08-13T13:48:37.612Z,77.01
2018-08-13T13:51:06.237Z,77.45
2018-08-13T13:53:34.817Z,77.18
2018-08-13T13:56:03.633Z,77.55
2018-08-13T13:58:32.430Z,77.13
2018-08-13T14:01:01.153Z,76.66
2018-08-13T14:03:29.997Z,75.60
2018-08-13T14:06:05.571Z,76.11
2018-08-13T14:08:34.159Z,74.68
2018-08-13T14:11:02.768Z,71.86
2018-08-13T14:13:32.060Z,71.46
2018-08-13T14:16:01.277Z,72.43
2018-08-13T14:18:30.080Z,73.21
2018-08-13T14:20:58.668Z,73.22
2018-08-13T14:23:27.891Z,73.96
2018-08-13T14:25:56.695Z,74.39
2018-08-13T14:28:25.877Z,73.72
2018-08-13T14:30:54.861Z,74.47
2018-08-13T14:33:24.557Z,74.35
2018-08-13T14:35:53.304Z,73.99
2018-08-13T14:38:22.174Z,74.96
2018-08-13T14:40:51.016Z,73.91
2018-08-13T14:43:19.705Z,73.64
2018-08-13T14:45:48.540Z,74.53
2018-08-13T14:48:17.849Z,75.07
2018-08-13T14:50:46.510Z,75.57
2018-08-13T14:53:15.686Z,74.67
2018-08-13T14:55:44.471Z,75.09
2018-08-13T14:58:13.811Z,74.75
2018-08-13T15:00:42.475Z,75.51
2018-08-13T15:03:13.075Z,75.97
2018-08-13T15:05:42.380Z,76.58
2018-08-13T15:08:11.515Z,75.71
2018-08-13T15:10:40.350Z,76.26
2018-08-13T15:13:09.219Z,75.92
2018-08-13T15:15:37.825Z,73.54
2018-08-13T15:18:06.543Z,68.64
2018-08-13T15:20:35.553Z,63.12
2018-08-13T15:23:04.633Z,59.33
2018-08-13T15:25:33.368Z,56.17
2018-08-13T15:28:02.138Z,58.17
2018-08-13T15:30:31.341Z,58.25
2018-08-13T15:33:00.016Z,59.56
2018-08-13T15:35:29.511Z,59.77
2018-08-13T15:37:58.966Z,58.85
2018-08-13T15:40:28.195Z,59.03
2018-08-13T15:42:56.831Z,56.00
2018-08-13T15:45:26.033Z,53.95
2018-08-13T15:47:54.723Z,53.21
2018-08-13T15:50:24.118Z,53.62
2018-08-13T15:52:53.445Z,52.37
2018-08-13T15:55:22.997Z,51.16
2018-08-13T15:57:51.699Z,49.86
2018-08-13T16:00:24.390Z,49.82
2018-08-13T16:02:53.617Z,50.57
2018-08-13T16:05:22.748Z,53.78
2018-08-13T16:07:52.044Z,55.12
2018-08-13T16:10:20.733Z,57.46
2018-08-13T16:12:49.444Z,59.11
2018-08-13T16:15:18.281Z,58.43
2018-08-13T16:17:46.967Z,58.84
2018-08-13T16:20:17.658Z,57.67
2018-08-13T16:22:47.203Z,58.44
2018-08-13T16:25:16.564Z,58.14
2018-08-13T16:27:46.555Z,59.35
2018-08-13T16:30:23.061Z,59.20
2018-08-13T16:32:51.786Z,60.26
2018-08-13T16:35:21.131Z,59.43
2018-08-13T16:37:50.205Z,59.90
2018-08-13T16:40:19.445Z,60.67
2018-08-13T16:42:48.742Z,61.01
2018-08-13T16:45:19.060Z,60.94
2018-08-13T16:47:48.024Z,62.33
2018-08-13T16:50:22.673Z,62.55
2018-08-13T16:52:51.514Z,62.82
2018-08-13T16:55:20.260Z,62.80
2018-08-13T16:57:49.445Z,63.71
2018-08-13T17:00:22.178Z,64.03
2018-08-13T17:02:51.193Z,64.76
2018-08-13T17:05:20.332Z,65.98
2018-08-13T17:07:49.324Z,65.61
2018-08-13T17:10:20.746Z,65.33
2018-08-13T17:12:51.145Z,65.95
2018-08-13T17:15:20.199Z,65.80
2018-08-13T17:17:50.749Z,66.13
2018-08-13T17:20:26.048Z,66.37
2018-08-13T17:22:54.869Z,66.91
2018-08-13T17:25:24.020Z,67.34
2018-08-13T17:27:52.749Z,67.30
2018-08-13T17:30:23.552Z,67.10
2018-08-13T17:32:53.976Z,67.28
2018-08-13T17:35:25.550Z,67.64
2018-08-13T17:37:54.867Z,68.66
2018-08-13T17:40:24.563Z,68.55
2018-08-13T17:42:54.401Z,69.08
2018-08-13T17:45:24.367Z,69.15
2018-08-13T17:47:54.299Z,69.26
2018-08-13T17:50:23.577Z,68.76
2018-08-13T17:52:53.157Z,68.74
2018-08-13T17:55:22.455Z,69.17
2018-08-13T17:57:51.457Z,69.79
2018-08-13T18:00:22.850Z,69.97
2018-08-13T18:02:52.404Z,69.50
2018-08-13T18:05:23.345Z,69.07
2018-08-13T18:10:24.750Z,69.52
2018-08-13T18:12:53.740Z,69.64
2018-08-13T18:15:22.904Z,70.40
2018-08-13T18:17:52.050Z,70.98
2018-08-13T18:20:21.377Z,70.87
2018-08-13T18:22:50.518Z,70.71
2018-08-13T18:25:19.404Z,71.39
2018-08-13T18:27:49.496Z,71.45
2018-08-13T18:30:20.445Z,71.55
2018-08-13T18:32:49.956Z,71.46
2018-08-13T18:35:19.372Z,72.34
2018-08-13T18:37:48.804Z,72.12
2018-08-13T18:40:20.676Z,71.84
2018-08-13T18:42:49.904Z,72.47
2018-08-13T18:45:18.900Z,71.45
2018-08-13T18:47:48.303Z,72.26
2018-08-13T18:50:18.531Z,72.19
2018-08-13T18:52:47.709Z,72.70
2018-08-13T18:55:20.014Z,72.72
2018-08-13T18:57:49.260Z,72.82
2018-08-13T19:00:20.624Z,73.42
2018-08-13T19:02:49.560Z,72.69
2018-08-13T19:05:19.519Z,72.85
2018-08-13T19:07:48.557Z,73.07
2018-08-13T19:10:18.230Z,73.45
2018-08-13T19:12:47.478Z,72.43
2018-08-13T19:15:18.338Z,73.03
2018-08-13T19:17:47.122Z,73.71
2018-08-13T19:20:16.149Z,73.36
2018-08-13T19:22:45.177Z,73.48
2018-08-13T19:25:18.372Z,73.01
2018-08-13T19:27:47.275Z,73.37
2018-08-13T19:30:17.427Z,73.69
2018-08-13T19:32:47.343Z,74.28
2018-08-13T19:35:16.278Z,73.36
2018-08-13T19:37:45.868Z,74.22
2018-08-13T19:40:17.407Z,74.36
2018-08-13T19:42:47.609Z,73.45
2018-08-13T19:45:17.434Z,74.55
2018-08-13T19:47:46.527Z,73.94
2018-08-13T19:50:15.716Z,74.46
2018-08-13T19:52:45.408Z,74.48
2018-08-13T19:55:14.711Z,74.16
2018-08-13T19:57:43.365Z,73.85
2018-08-13T20:00:15.100Z,74.46
2018-08-13T20:02:44.592Z,73.94
2018-08-13T20:05:13.848Z,74.28
2018-08-13T20:07:43.088Z,74.92
2018-08-13T20:10:13.330Z,74.92
2018-08-13T20:12:42.704Z,74.69
2018-08-13T20:15:11.699Z,74.86
2018-08-13T20:17:40.916Z,74.31
2018-08-13T20:20:12.418Z,74.75
2018-08-13T20:22:41.139Z,75.19
2018-08-13T20:25:11.596Z,74.80
2018-08-13T20:27:40.800Z,75.74
2018-08-13T20:30:12.943Z,75.45
2018-08-13T20:32:41.964Z,75.82
2018-08-13T20:35:11.843Z,76.29
2018-08-13T20:37:40.798Z,75.70
2018-08-13T20:40:12.524Z,75.75
2018-08-13T20:42:42.089Z,75.96
2018-08-13T20:45:13.161Z,76.70
2018-08-13T20:47:44.343Z,76.27
2018-08-13T20:50:15.915Z,76.96
2018-08-13T20:52:46.360Z,76.75
2018-08-13T20:55:19.784Z,77.54
2018-08-13T20:57:49.316Z,77.24
2018-08-13T21:00:19.763Z,77.83
2018-08-13T21:02:48.985Z,77.69
2018-08-13T21:05:18.136Z,77.55
2018-08-13T21:07:48.257Z,78.32
2018-08-13T21:10:18.449Z,77.70
2018-08-13T21:12:47.424Z,77.38
2018-08-13T21:15:16.595Z,77.21
2018-08-13T21:17:45.691Z,78.72
2018-08-13T21:20:29.790Z,78.02
2018-08-13T21:22:58.567Z,77.80
2018-08-13T21:25:28.110Z,79.21
2018-08-13T21:27:56.721Z,78.49
2018-08-13T21:30:25.451Z,79.11
2018-08-13T21:33:00.663Z,79.33
2018-08-13T21:35:29.876Z,79.10
2018-08-13T21:37:58.825Z,78.83
2018-08-13T21:40:28.295Z,79.23
2018-08-13T21:42:57.127Z,79.87
2018-08-13T21:45:26.325Z,79.43
2018-08-13T21:47:54.952Z,80.05
2018-08-13T21:50:23.985Z,79.67
2018-08-13T21:52:53.063Z,79.84
2018-08-13T21:55:22.476Z,79.73
2018-08-13T21:57:51.075Z,80.59
2018-08-13T22:00:27.173Z,80.10
2018-08-13T22:02:56.766Z,80.01
2018-08-13T22:05:25.702Z,80.34
2018-08-13T22:07:54.239Z,81.23
2018-08-13T22:10:23.669Z,80.38
2018-08-13T22:12:52.407Z,81.30
2018-08-13T22:15:27.584Z,81.00
2018-08-13T22:17:58.040Z,81.30
2018-08-13T22:20:26.973Z,80.31
2018-08-13T22:22:56.825Z,81.04
2018-08-13T22:25:32.092Z,81.23
2018-08-13T22:28:01.087Z,81.33
2018-08-13T22:30:31.505Z,81.50
2018-08-13T22:33:00.338Z,81.24
2018-08-13T22:35:28.902Z,81.46
2018-08-13T22:37:57.639Z,81.86
2018-08-13T22:40:26.470Z,81.66
2018-08-13T22:42:55.111Z,81.04
2018-08-13T22:45:24.552Z,81.15
2018-08-13T22:47:53.474Z,81.86
2018-08-13T22:50:22.033Z,82.14
2018-08-13T22:52:50.969Z,81.89
2018-08-13T22:55:19.715Z,81.50
2018-08-13T22:57:49.093Z,82.36
2018-08-13T23:00:18.891Z,81.51
2018-08-13T23:02:48.412Z,81.55
2018-08-13T23:05:22.265Z,82.37
2018-08-13T23:07:51.047Z,81.96
2018-08-13T23:10:21.068Z,82.74
2018-08-13T23:12:51.330Z,81.52
2018-08-13T23:15:20.344Z,82.94
2018-08-13T23:17:49.197Z,82.74
2018-08-13T23:20:19.946Z,82.24
2018-08-13T23:22:51.567Z,82.50
2018-08-13T23:25:20.667Z,83.15
2018-08-13T23:27:50.619Z,82.45
2018-08-13T23:30:19.470Z,82.61
2018-08-13T23:32:49.470Z,83.63
2018-08-13T23:35:19.092Z,83.46
2018-08-13T23:37:47.758Z,83.78
2018-08-13T23:40:17.083Z,83.48
2018-08-13T23:42:45.865Z,83.83
2018-08-13T23:45:16.131Z,82.89
2018-08-13T23:47:44.891Z,83.60
2018-08-13T23:50:18.276Z,83.63
2018-08-13T23:52:47.670Z,82.83
2018-08-13T23:55:19.145Z,83.51
2018-08-13T23:57:48.036Z,82.93
